TXKF/BDA METAR and TAF weather

Enter ICAO airport designator
Station Type Date Time Source
TXKF METAR 2019/02/23 22:55 UTC NOAA

TXKF 232255Z 09008KT 9999 FEW031 BKN086 BKN300 17/11 Q1026


Station Type Date Time Source
TXKF Decoded METAR 2019/02/23 22:55 UTC NOAA

Bermuda, Bermuda (TXKF) 32-22N 064-41W
Feb 23, 2019 - 05:55 PM EST / 2019.02.23 2255 UTC
Wind: from the E (090 degrees) at 9 MPH (8 KT):0
Visibility: greater than 7 mile(s):0
Sky conditions: mostly cloudy
Temperature: 62 F (17 C)
Dew Point: 51 F (11 C)
Relative Humidity: 67%
Pressure (altimeter): 30.30 in. Hg (1026 hPa)
ob: TXKF 232255Z 09008KT 9999 FEW031 BKN086 BKN300 17/11 Q1026
cycle: 23

Station Type Date Time Source
TXKF TAF 2019/02/23 18:42 UTC NOAA

TAF TXKF 231736Z 2318/2418 04010KT 9999 BKN030
BECMG 2322/2401 09012KT
BECMG 2411/2414 14015KT BKN018 PROB40 2411/2418 8000 -RA BKN012 PROB30
TEMPO 2413/2418 3200 SHRA BKN008


Example: see airport list